LOT7AB LZKZ-EPWA
Flight info
| Callsign | LOT7AB |
|---|---|
| Flight time | 0h 43m |
| Altitude | 31000 |
| Route | RAZEC N133 LENOV DCT ORTEB DCT KONZI DCT LOGDA |
| Aircraft | E75S/M-SDE3GILORVW/S |
Departure
| Time | 2026-04-26 18:32 |
|---|---|
| Airport | Košice International Airport (LZKZ) |
Arrival
| Time | 2026-04-26 19:15 |
|---|---|
| Airport | Warsaw Chopin Airport (EPWA) |
| Time | Latitude | Longitude | Altitude | Speed | Heading |
|---|---|---|---|---|---|
| 2026-04-26 18:17 | 48.67334 | 21.23846 | 751 ft | 0 kts | 214° |
| 2026-04-26 18:26 | 48.67329 | 21.23843 | 755 ft | 2 kts | 205° |
| 2026-04-26 18:26 | 48.67312 | 21.23847 | 753 ft | 4 kts | 142° |
| 2026-04-26 18:27 | 48.67303 | 21.23911 | 753 ft | 10 kts | 94° |
| 2026-04-26 18:27 | 48.67285 | 21.24045 | 754 ft | 16 kts | 103° |
| 2026-04-26 18:27 | 48.67257 | 21.24232 | 755 ft | 19 kts | 103° |
| 2026-04-26 18:27 | 48.67196 | 21.24416 | 757 ft | 21 kts | 163° |
| 2026-04-26 18:28 | 48.67044 | 21.24375 | 757 ft | 24 kts | 193° |
| 2026-04-26 18:28 | 48.66868 | 21.24314 | 758 ft | 28 kts | 192° |
| 2026-04-26 18:28 | 48.66667 | 21.24242 | 755 ft | 32 kts | 192° |
| 2026-04-26 18:28 | 48.66436 | 21.24164 | 754 ft | 35 kts | 193° |
| 2026-04-26 18:29 | 48.66194 | 21.24079 | 754 ft | 36 kts | 194° |
| 2026-04-26 18:29 | 48.65942 | 21.23991 | 753 ft | 38 kts | 193° |
| 2026-04-26 18:29 | 48.65686 | 21.23904 | 753 ft | 39 kts | 194° |
| 2026-04-26 18:29 | 48.65417 | 21.23808 | 752 ft | 40 kts | 194° |
| 2026-04-26 18:30 | 48.65160 | 21.23718 | 751 ft | 30 kts | 193° |
| 2026-04-26 18:30 | 48.64997 | 21.23642 | 756 ft | 18 kts | 200° |
| 2026-04-26 18:30 | 48.64962 | 21.23662 | 753 ft | 1 kts | 68° |
| 2026-04-26 18:30 | 48.64965 | 21.23664 | 754 ft | 0 kts | 26° |
| 2026-04-26 18:31 | 48.64978 | 21.23665 | 755 ft | 5 kts | 0° |
| 2026-04-26 18:31 | 48.65059 | 21.23684 | 756 ft | 26 kts | 13° |
| 2026-04-26 18:31 | 48.65467 | 21.23826 | 754 ft | 100 kts | 13° |
| 2026-04-26 18:31 | 48.66382 | 21.24144 | 870 ft | 159 kts | 11° |
| 2026-04-26 18:32 | 48.67118 | 21.24397 | 1412 ft | 166 kts | 11° |
| 2026-04-26 18:32 | 48.68259 | 21.24795 | 2463 ft | 164 kts | 12° |
| 2026-04-26 18:32 | 48.69360 | 21.25175 | 3474 ft | 168 kts | 10° |
| 2026-04-26 18:32 | 48.70947 | 21.25730 | 4395 ft | 187 kts | 10° |
| 2026-04-26 18:33 | 48.71821 | 21.26038 | 4912 ft | 195 kts | 10° |
| 2026-04-26 18:33 | 48.73154 | 21.26516 | 5885 ft | 197 kts | 10° |
| 2026-04-26 18:33 | 48.74496 | 21.26986 | 6874 ft | 199 kts | 8° |
| 2026-04-26 18:33 | 48.75854 | 21.27331 | 7618 ft | 208 kts | 358° |
| 2026-04-26 18:34 | 48.77328 | 21.26883 | 8181 ft | 223 kts | 335° |
| 2026-04-26 18:34 | 48.78633 | 21.25537 | 8767 ft | 240 kts | 316° |
| 2026-04-26 18:34 | 48.79600 | 21.23382 | 9504 ft | 255 kts | 296° |
| 2026-04-26 18:34 | 48.80141 | 21.20760 | 10358 ft | 260 kts | 297° |
| 2026-04-26 18:35 | 48.81254 | 21.18693 | 11249 ft | 254 kts | 324° |
| 2026-04-26 18:35 | 48.82834 | 21.17493 | 12301 ft | 256 kts | 340° |
| 2026-04-26 18:35 | 48.84559 | 21.16768 | 13400 ft | 258 kts | 341° |
| 2026-04-26 18:35 | 48.86267 | 21.16015 | 14488 ft | 260 kts | 341° |
| 2026-04-26 18:36 | 48.88022 | 21.15257 | 15532 ft | 263 kts | 341° |
| 2026-04-26 18:36 | 48.89794 | 21.14513 | 16586 ft | 266 kts | 341° |
| 2026-04-26 18:36 | 48.91594 | 21.13794 | 17576 ft | 269 kts | 342° |
| 2026-04-26 18:36 | 48.93425 | 21.13097 | 18562 ft | 273 kts | 342° |
| 2026-04-26 18:37 | 48.95293 | 21.12410 | 19424 ft | 277 kts | 342° |
| 2026-04-26 18:37 | 48.97182 | 21.11726 | 20296 ft | 281 kts | 342° |
| 2026-04-26 18:37 | 48.99104 | 21.11049 | 21091 ft | 286 kts | 342° |
| 2026-04-26 18:37 | 49.01038 | 21.10396 | 21836 ft | 291 kts | 342° |
| 2026-04-26 18:38 | 49.03053 | 21.09724 | 22587 ft | 295 kts | 342° |
| 2026-04-26 18:38 | 49.05050 | 21.09075 | 23331 ft | 299 kts | 342° |
| 2026-04-26 18:38 | 49.07106 | 21.08429 | 24046 ft | 304 kts | 342° |
| 2026-04-26 18:38 | 49.09191 | 21.07786 | 24716 ft | 307 kts | 342° |
| 2026-04-26 18:39 | 49.11301 | 21.07146 | 25388 ft | 311 kts | 342° |
| 2026-04-26 18:39 | 49.13441 | 21.06510 | 26041 ft | 315 kts | 344° |
| 2026-04-26 18:39 | 49.15647 | 21.06119 | 26648 ft | 322 kts | 347° |
| 2026-04-26 18:39 | 49.17899 | 21.05786 | 27248 ft | 326 kts | 347° |
| 2026-04-26 18:40 | 49.20146 | 21.05438 | 27803 ft | 329 kts | 347° |
| 2026-04-26 18:40 | 49.22440 | 21.05072 | 28360 ft | 333 kts | 346° |
| 2026-04-26 18:40 | 49.24760 | 21.04697 | 28953 ft | 337 kts | 346° |
| 2026-04-26 18:40 | 49.27115 | 21.04311 | 29510 ft | 340 kts | 346° |
| 2026-04-26 18:41 | 49.29469 | 21.03921 | 30187 ft | 339 kts | 346° |
| 2026-04-26 18:41 | 49.31829 | 21.03522 | 30299 ft | 354 kts | 346° |
| 2026-04-26 18:41 | 49.34362 | 21.03093 | 30311 ft | 369 kts | 346° |
| 2026-04-26 18:41 | 49.36930 | 21.02663 | 30340 ft | 383 kts | 346° |
| 2026-04-26 18:42 | 49.39629 | 21.02211 | 30378 ft | 396 kts | 347° |
| 2026-04-26 18:42 | 49.42402 | 21.01748 | 30270 ft | 406 kts | 347° |
| 2026-04-26 18:42 | 49.48091 | 21.00808 | 30227 ft | 412 kts | 347° |
| 2026-04-26 18:43 | 49.53813 | 20.99856 | 30231 ft | 414 kts | 347° |
| 2026-04-26 18:43 | 49.59545 | 20.98897 | 30216 ft | 414 kts | 347° |
| 2026-04-26 18:44 | 49.65239 | 20.97942 | 30219 ft | 414 kts | 347° |
| 2026-04-26 18:44 | 49.70946 | 20.96978 | 30226 ft | 413 kts | 347° |
| 2026-04-26 18:45 | 49.76656 | 20.96015 | 30237 ft | 412 kts | 347° |
| 2026-04-26 18:45 | 49.82363 | 20.95048 | 30239 ft | 411 kts | 347° |
| 2026-04-26 18:46 | 49.88058 | 20.94082 | 30219 ft | 411 kts | 347° |
| 2026-04-26 18:46 | 49.93713 | 20.93120 | 30227 ft | 410 kts | 347° |
| 2026-04-26 18:47 | 49.99391 | 20.92149 | 30221 ft | 410 kts | 347° |
| 2026-04-26 18:47 | 50.05060 | 20.91179 | 30227 ft | 409 kts | 347° |
| 2026-04-26 18:48 | 50.10720 | 20.90208 | 30232 ft | 409 kts | 347° |
| 2026-04-26 18:48 | 50.16377 | 20.89236 | 30229 ft | 409 kts | 347° |
| 2026-04-26 18:49 | 50.22034 | 20.88262 | 30230 ft | 408 kts | 347° |
| 2026-04-26 18:49 | 50.27643 | 20.87292 | 30235 ft | 408 kts | 347° |
| 2026-04-26 18:50 | 50.33287 | 20.86316 | 30233 ft | 408 kts | 347° |
| 2026-04-26 18:50 | 50.38942 | 20.85334 | 30233 ft | 408 kts | 347° |
| 2026-04-26 18:51 | 50.44590 | 20.84352 | 30236 ft | 408 kts | 347° |
| 2026-04-26 18:51 | 50.50198 | 20.83373 | 30235 ft | 408 kts | 347° |
| 2026-04-26 18:52 | 50.54923 | 20.82547 | 30228 ft | 408 kts | 347° |
| 2026-04-26 18:52 | 50.61477 | 20.81400 | 30235 ft | 407 kts | 347° |
| 2026-04-26 18:53 | 50.67116 | 20.80409 | 30241 ft | 407 kts | 347° |
| 2026-04-26 18:53 | 50.69929 | 20.79915 | 29998 ft | 403 kts | 347° |
| 2026-04-26 18:53 | 50.72699 | 20.79431 | 29550 ft | 398 kts | 347° |
| 2026-04-26 18:54 | 50.75445 | 20.78948 | 29067 ft | 392 kts | 347° |
| 2026-04-26 18:54 | 50.78126 | 20.78479 | 28560 ft | 382 kts | 347° |
| 2026-04-26 18:54 | 50.80746 | 20.78016 | 28090 ft | 376 kts | 347° |
| 2026-04-26 18:54 | 50.83339 | 20.77555 | 27627 ft | 372 kts | 347° |
| 2026-04-26 18:55 | 50.85892 | 20.77103 | 27191 ft | 365 kts | 347° |
| 2026-04-26 18:55 | 50.88363 | 20.76665 | 26732 ft | 359 kts | 347° |
| 2026-04-26 18:55 | 50.90840 | 20.76222 | 26287 ft | 355 kts | 347° |
| 2026-04-26 18:55 | 50.93296 | 20.75783 | 25859 ft | 353 kts | 347° |
| 2026-04-26 18:56 | 50.95724 | 20.75350 | 25447 ft | 350 kts | 347° |
| 2026-04-26 18:56 | 50.98135 | 20.74920 | 25031 ft | 347 kts | 347° |
| 2026-04-26 18:56 | 51.00522 | 20.74494 | 24675 ft | 344 kts | 347° |
| 2026-04-26 18:56 | 51.02893 | 20.74068 | 24325 ft | 341 kts | 347° |
| 2026-04-26 18:57 | 51.05250 | 20.73645 | 23980 ft | 339 kts | 347° |
| 2026-04-26 18:57 | 51.06800 | 20.73367 | 23744 ft | 338 kts | 347° |
| 2026-04-26 18:57 | 51.09911 | 20.72808 | 23194 ft | 335 kts | 347° |
| 2026-04-26 18:57 | 51.12187 | 20.72398 | 22803 ft | 332 kts | 348° |
| 2026-04-26 18:58 | 51.14476 | 20.71987 | 22420 ft | 329 kts | 348° |
| 2026-04-26 18:58 | 51.16751 | 20.71577 | 22039 ft | 327 kts | 348° |
| 2026-04-26 18:58 | 51.18999 | 20.71172 | 21657 ft | 320 kts | 348° |
| 2026-04-26 18:58 | 51.21180 | 20.70782 | 21292 ft | 311 kts | 348° |
| 2026-04-26 18:59 | 51.23314 | 20.70396 | 20955 ft | 307 kts | 348° |
| 2026-04-26 18:59 | 51.25427 | 20.70012 | 20606 ft | 304 kts | 348° |
| 2026-04-26 18:59 | 51.27506 | 20.69682 | 20252 ft | 300 kts | 353° |
| 2026-04-26 18:59 | 51.29595 | 20.70081 | 19906 ft | 307 kts | 6° |
| 2026-04-26 19:00 | 51.31640 | 20.71114 | 19575 ft | 308 kts | 9° |
| 2026-04-26 19:00 | 51.33673 | 20.72185 | 19250 ft | 306 kts | 9° |
| 2026-04-26 19:00 | 51.35686 | 20.73258 | 18923 ft | 304 kts | 9° |
| 2026-04-26 19:00 | 51.37685 | 20.74331 | 18603 ft | 302 kts | 9° |
| 2026-04-26 19:01 | 51.39675 | 20.75405 | 18237 ft | 301 kts | 10° |
| 2026-04-26 19:01 | 51.41634 | 20.76465 | 17871 ft | 299 kts | 10° |
| 2026-04-26 19:01 | 51.43606 | 20.77532 | 17508 ft | 298 kts | 10° |
| 2026-04-26 19:01 | 51.45571 | 20.78598 | 17149 ft | 298 kts | 10° |
| 2026-04-26 19:02 | 51.47530 | 20.79660 | 16778 ft | 297 kts | 10° |
| 2026-04-26 19:02 | 51.49482 | 20.80662 | 16395 ft | 291 kts | 9° |
| 2026-04-26 19:02 | 51.51383 | 20.81679 | 16023 ft | 285 kts | 10° |
| 2026-04-26 19:02 | 51.52624 | 20.82351 | 15777 ft | 282 kts | 10° |
| 2026-04-26 19:03 | 51.55106 | 20.83688 | 15315 ft | 280 kts | 11° |
| 2026-04-26 19:03 | 51.56890 | 20.84910 | 14930 ft | 288 kts | 21° |
| 2026-04-26 19:03 | 51.58610 | 20.86591 | 14522 ft | 288 kts | 23° |
| 2026-04-26 19:03 | 51.60306 | 20.88278 | 14095 ft | 284 kts | 23° |
| 2026-04-26 19:04 | 51.61977 | 20.89939 | 13625 ft | 281 kts | 23° |
| 2026-04-26 19:04 | 51.63630 | 20.91581 | 13165 ft | 278 kts | 24° |
| 2026-04-26 19:04 | 51.65269 | 20.93214 | 12719 ft | 276 kts | 24° |
| 2026-04-26 19:04 | 51.66899 | 20.94836 | 12265 ft | 274 kts | 24° |
| 2026-04-26 19:05 | 51.70109 | 20.98036 | 11372 ft | 271 kts | 25° |
| 2026-04-26 19:05 | 51.71704 | 20.99628 | 10918 ft | 268 kts | 25° |
| 2026-04-26 19:05 | 51.73286 | 21.01204 | 10487 ft | 265 kts | 26° |
| 2026-04-26 19:06 | 51.74853 | 21.02766 | 10061 ft | 264 kts | 26° |
| 2026-04-26 19:06 | 51.76415 | 21.04325 | 9580 ft | 262 kts | 26° |
| 2026-04-26 19:06 | 51.77958 | 21.05864 | 9113 ft | 260 kts | 26° |
| 2026-04-26 19:06 | 51.79491 | 21.07393 | 8659 ft | 257 kts | 26° |
| 2026-04-26 19:07 | 51.81010 | 21.08910 | 8211 ft | 257 kts | 26° |
| 2026-04-26 19:07 | 51.82526 | 21.10423 | 7771 ft | 255 kts | 26° |
| 2026-04-26 19:07 | 51.84043 | 21.11896 | 7339 ft | 252 kts | 21° |
| 2026-04-26 19:07 | 51.85682 | 21.12554 | 6925 ft | 243 kts | 360° |
| 2026-04-26 19:08 | 51.87362 | 21.12585 | 6530 ft | 240 kts | 357° |
| 2026-04-26 19:08 | 51.89028 | 21.12568 | 6120 ft | 239 kts | 357° |
| 2026-04-26 19:08 | 51.90686 | 21.12587 | 5708 ft | 238 kts | 358° |
| 2026-04-26 19:08 | 51.92340 | 21.12611 | 5299 ft | 237 kts | 358° |
| 2026-04-26 19:09 | 51.93983 | 21.12641 | 4899 ft | 235 kts | 358° |
| 2026-04-26 19:09 | 51.95602 | 21.12694 | 4476 ft | 227 kts | 359° |
| 2026-04-26 19:09 | 51.97152 | 21.12762 | 4084 ft | 219 kts | 359° |
| 2026-04-26 19:09 | 51.98627 | 21.12475 | 3698 ft | 212 kts | 338° |
| 2026-04-26 19:10 | 51.99855 | 21.11296 | 3388 ft | 198 kts | 328° |
| 2026-04-26 19:10 | 52.01004 | 21.10230 | 3043 ft | 188 kts | 335° |
| 2026-04-26 19:10 | 52.02119 | 21.09362 | 3023 ft | 169 kts | 334° |
| 2026-04-26 19:10 | 52.03120 | 21.08474 | 2964 ft | 155 kts | 332° |
| 2026-04-26 19:11 | 52.04045 | 21.07645 | 2918 ft | 150 kts | 334° |
| 2026-04-26 19:11 | 52.04971 | 21.06855 | 2842 ft | 155 kts | 333° |
| 2026-04-26 19:11 | 52.05917 | 21.06024 | 2643 ft | 151 kts | 333° |
| 2026-04-26 19:11 | 52.06821 | 21.05243 | 2411 ft | 143 kts | 335° |
| 2026-04-26 19:12 | 52.07666 | 21.04498 | 2189 ft | 133 kts | 333° |
| 2026-04-26 19:12 | 52.08464 | 21.03798 | 2013 ft | 128 kts | 332° |
| 2026-04-26 19:12 | 52.09252 | 21.03124 | 1821 ft | 127 kts | 334° |
| 2026-04-26 19:12 | 52.10026 | 21.02442 | 1635 ft | 126 kts | 333° |
| 2026-04-26 19:13 | 52.10787 | 21.01775 | 1494 ft | 124 kts | 333° |
| 2026-04-26 19:13 | 52.11536 | 21.01122 | 1279 ft | 120 kts | 333° |
| 2026-04-26 19:13 | 52.12269 | 21.00481 | 1085 ft | 121 kts | 332° |
| 2026-04-26 19:13 | 52.13013 | 20.99828 | 915 ft | 121 kts | 332° |
| 2026-04-26 19:14 | 52.13753 | 20.99171 | 773 ft | 122 kts | 332° |
| 2026-04-26 19:14 | 52.14505 | 20.98520 | 597 ft | 122 kts | 333° |
| 2026-04-26 19:14 | 52.15238 | 20.97880 | 439 ft | 119 kts | 331° |
| 2026-04-26 19:14 | 52.15474 | 20.97673 | 394 ft | 119 kts | 332° |
| 2026-04-26 19:15 | 52.16523 | 20.96756 | 338 ft | 73 kts | 332° |
| 2026-04-26 19:15 | 52.16893 | 20.96433 | 336 ft | 46 kts | 332° |
| 2026-04-26 19:15 | 52.17114 | 20.96269 | 332 ft | 25 kts | 345° |
| 2026-04-26 19:15 | 52.17265 | 20.96243 | 335 ft | 17 kts | 0° |
| 2026-04-26 19:16 | 52.17341 | 20.96246 | 334 ft | 10 kts | 2° |
| 2026-04-26 19:16 | 52.17403 | 20.96308 | 335 ft | 12 kts | 59° |
| 2026-04-26 19:16 | 52.17447 | 20.96442 | 335 ft | 15 kts | 63° |
| 2026-04-26 19:16 | 52.17465 | 20.96542 | 333 ft | 7 kts | 110° |
| 2026-04-26 19:17 | 52.17419 | 20.96609 | 337 ft | 11 kts | 151° |
| 2026-04-26 19:17 | 52.17369 | 20.96653 | 337 ft | 13 kts | 152° |
| 2026-04-26 19:17 | 52.17281 | 20.96730 | 336 ft | 14 kts | 150° |
| 2026-04-26 19:17 | 52.17151 | 20.96845 | 334 ft | 17 kts | 152° |
| 2026-04-26 19:18 | 52.17088 | 20.96902 | 334 ft | 12 kts | 147° |
| 2026-04-26 19:18 | 52.17083 | 20.96997 | 333 ft | 7 kts | 73° |
| 2026-04-26 19:18 | 52.17094 | 20.97059 | 333 ft | 2 kts | 75° |
| 2026-04-26 19:18 | 52.17095 | 20.97064 | 333 ft | 0 kts | 75° |